Time;durP1;ratioP1;P1;durP2;ratioP2;P2;SDS_P1;SDS_P2;PMS_P1;PMS_P2;Temp;Humidity;BMP_temperature;BMP_pressure;BME280_temperature;BME280_humidity;BME280_pressure;Samples;Min_cycle;Max_cycle;Signal;HPM_P1;HPM_P2
2021/08/10 00:01:01;;;;;;;7.40;3.70;;;16.10;99.90;;;;;;4970017;28;20806;-61
2021/08/10 00:03:26;;;;;;;7.35;3.90;;;16.10;99.90;;;;;;4970497;28;20392;-61
2021/08/10 00:05:52;;;;;;;9.47;4.00;;;16.10;99.90;;;;;;4969993;28;20434;-60
2021/08/10 00:08:19;;;;;;;10.63;3.95;;;16.10;99.90;;;;;;4970634;28;20395;-61
2021/08/10 00:10:47;;;;;;;7.60;3.60;;;16.10;99.90;;;;;;4970353;28;20399;-60
2021/08/10 00:13:15;;;;;;;9.65;3.97;;;16.10;99.90;;;;;;4970173;28;20385;-60
2021/08/10 00:15:41;;;;;;;11.25;4.72;;;16.10;99.90;;;;;;4970370;28;20416;-61
2021/08/10 00:18:07;;;;;;;7.75;3.50;;;16.00;99.90;;;;;;4969644;28;20419;-61
2021/08/10 00:20:34;;;;;;;8.45;3.63;;;16.00;99.90;;;;;;4970299;28;20472;-61
2021/08/10 00:23:00;;;;;;;8.20;3.47;;;16.00;99.90;;;;;;4969750;28;20395;-61
2021/08/10 00:25:27;;;;;;;9.00;4.03;;;15.90;99.90;;;;;;4970551;28;20400;-61
2021/08/10 00:27:52;;;;;;;8.00;3.50;;;15.90;99.90;;;;;;4970192;28;20388;-58
2021/08/10 00:30:19;;;;;;;9.80;4.05;;;15.80;99.90;;;;;;4973744;28;20717;-60
2021/08/10 00:32:44;;;;;;;8.77;3.83;;;15.80;99.90;;;;;;4974362;28;20397;-60
2021/08/10 00:35:10;;;;;;;8.90;3.70;;;15.70;99.90;;;;;;4973238;28;21099;-61
2021/08/10 00:37:36;;;;;;;7.45;3.75;;;15.70;99.90;;;;;;4973835;28;20403;-61
2021/08/10 00:40:03;;;;;;;7.80;4.00;;;15.60;99.90;;;;;;4973500;28;20396;-65
2021/08/10 00:42:28;;;;;;;7.32;4.00;;;15.60;99.90;;;;;;4974105;28;20380;-67
2021/08/10 00:44:54;;;;;;;8.77;3.80;;;15.50;99.90;;;;;;4973651;28;20860;-59
2021/08/10 00:47:19;;;;;;;7.60;3.30;;;15.50;99.90;;;;;;4973570;28;20839;-61
2021/08/10 00:49:45;;;;;;;8.20;4.40;;;15.50;99.90;;;;;;4956618;28;20899;-60
2021/08/10 00:52:11;;;;;;;8.33;3.50;;;15.50;99.90;;;;;;4973116;28;20468;-61
2021/08/10 00:54:37;;;;;;;6.90;3.40;;;15.50;99.90;;;;;;4974112;28;20439;-61
2021/08/10 00:57:03;;;;;;;10.07;3.80;;;15.50;99.90;;;;;;4972903;28;20400;-61
2021/08/10 00:59:29;;;;;;;9.73;3.58;;;15.60;99.90;;;;;;4973483;28;20876;-61
2021/08/10 01:01:55;;;;;;;8.13;4.00;;;15.50;99.90;;;;;;4973929;28;20468;-58
2021/08/10 01:04:20;;;;;;;7.75;3.50;;;15.60;99.90;;;;;;4982771;28;20826;-60
2021/08/10 01:07:04;;;;;;;8.50;3.80;;;15.60;99.90;;;;;;4980784;28;20474;-60
2021/08/10 01:09:45;;;;;;;9.00;3.80;;;15.60;99.90;;;;;;4989551;28;20402;-60
2021/08/10 01:12:28;;;;;;;7.80;3.60;;;15.60;99.90;;;;;;4972871;28;20519;-60
2021/08/10 01:14:53;;;;;;;5.90;3.40;;;15.60;99.90;;;;;;4973252;28;20428;-59
2021/08/10 01:17:26;;;;;;;6.80;3.60;;;15.60;99.90;;;;;;4973451;28;20595;-60
2021/08/10 01:20:24;;;;;;;7.90;3.67;;;15.60;99.90;;;;;;4955939;28;20907;-59
2021/08/10 01:22:53;;;;;;;10.23;4.32;;;15.60;99.90;;;;;;4973406;28;20445;-60
2021/08/10 01:25:37;;;;;;;7.45;3.35;;;15.50;99.90;;;;;;4973067;28;20395;-60
2021/08/10 01:28:23;;;;;;;8.55;3.83;;;15.50;99.90;;;;;;4972580;28;20462;-60
2021/08/10 01:31:07;;;;;;;10.02;3.78;;;15.50;99.90;;;;;;4973014;28;20946;-60
2021/08/10 01:33:40;;;;;;;7.07;3.30;;;15.50;99.90;;;;;;4973067;28;20438;-60
2021/08/10 01:36:07;;;;;;;7.78;3.55;;;15.40;99.90;;;;;;4972154;28;20447;-60
2021/08/10 01:38:34;;;;;;;10.23;3.70;;;15.40;99.90;;;;;;4973210;28;20392;-60
2021/08/10 01:41:01;;;;;;;7.78;3.78;;;15.30;99.90;;;;;;4972139;28;20387;-60
2021/08/10 01:43:29;;;;;;;9.10;3.77;;;15.40;99.90;;;;;;4973087;28;20578;-61
2021/08/10 01:45:56;;;;;;;7.13;3.40;;;15.30;99.90;;;;;;4972447;28;20395;-59
2021/08/10 01:48:22;;;;;;;8.25;3.80;;;15.30;99.90;;;;;;4972888;28;20420;-61
2021/08/10 01:50:48;;;;;;;8.70;3.67;;;15.30;99.90;;;;;;4972876;28;20871;-61
2021/08/10 01:53:16;;;;;;;5.90;3.33;;;15.30;99.90;;;;;;4972390;28;20523;-61
2021/08/10 01:55:44;;;;;;;8.88;3.40;;;15.20;99.90;;;;;;4982091;28;20426;-60
2021/08/10 01:58:11;;;;;;;9.68;3.67;;;15.20;99.90;;;;;;4991485;28;20477;-61
2021/08/10 02:00:39;;;;;;;8.32;3.75;;;15.20;99.90;;;;;;4992348;28;20450;-61
2021/08/10 02:03:08;;;;;;;8.10;3.40;;;15.20;99.90;;;;;;4973745;28;20751;-61
2021/08/10 02:05:35;;;;;;;7.77;3.53;;;15.10;99.90;;;;;;4992210;28;20432;-61
2021/08/10 02:08:01;;;;;;;7.40;3.40;;;15.00;99.90;;;;;;4990971;28;21133;-60
2021/08/10 02:10:29;;;;;;;8.10;3.35;;;15.00;99.90;;;;;;4991610;28;20728;-61
2021/08/10 02:12:56;;;;;;;8.75;3.65;;;15.00;99.90;;;;;;4991028;28;20387;-59
2021/08/10 02:15:22;;;;;;;7.72;3.20;;;15.10;99.90;;;;;;4991764;28;20407;-61
2021/08/10 02:17:50;;;;;;;6.97;3.77;;;15.10;99.90;;;;;;4991579;28;20826;-61
2021/08/10 02:20:16;;;;;;;9.17;3.40;;;15.10;99.90;;;;;;4991031;28;20394;-61
2021/08/10 02:22:46;;;;;;;9.40;4.20;;;15.20;99.90;;;;;;4974314;28;20731;-61
2021/08/10 02:25:14;;;;;;;7.85;3.75;;;15.10;99.90;;;;;;4991050;28;20425;-61
2021/08/10 02:27:53;;;;;;;7.68;3.70;;;15.00;99.90;;;;;;4991511;28;20419;-61
2021/08/10 02:30:38;;;;;;;8.80;3.60;;;15.00;99.90;;;;;;4990894;28;20780;-61
2021/08/10 02:33:08;;;;;;;8.80;3.90;;;15.10;99.90;;;;;;4990945;28;20398;-61
2021/08/10 02:35:35;;;;;;;9.30;3.80;;;15.10;99.90;;;;;;4991396;28;20414;-61
2021/08/10 02:38:06;;;;;;;7.90;3.60;;;15.00;99.90;;;;;;4990384;28;20493;-63
2021/08/10 02:40:34;;;;;;;7.40;3.75;;;14.90;99.90;;;;;;4991647;28;20505;-64
2021/08/10 02:43:01;;;;;;;7.30;3.15;;;14.90;99.90;;;;;;4990583;28;20449;-59
2021/08/10 02:45:27;;;;;;;9.57;3.80;;;15.00;99.90;;;;;;4991294;28;20398;-61
2021/08/10 02:47:58;;;;;;;7.70;3.40;;;15.00;99.90;;;;;;4990889;28;20414;-61
2021/08/10 02:50:25;;;;;;;9.00;3.72;;;15.00;99.90;;;;;;4990554;28;20434;-61
2021/08/10 02:52:52;;;;;;;8.25;3.40;;;15.10;99.90;;;;;;4990245;28;20393;-61
2021/08/10 02:55:19;;;;;;;6.63;3.50;;;15.10;99.90;;;;;;4979135;28;20424;-64
2021/08/10 02:58:09;;;;;;;8.73;3.20;;;15.10;99.90;;;;;;4977775;28;20895;-66
2021/08/10 03:00:40;;;;;;;7.18;3.40;;;15.20;99.90;;;;;;4991090;28;20460;-61
2021/08/10 03:03:10;;;;;;;7.88;3.20;;;15.30;99.90;;;;;;4974012;28;20836;-64
2021/08/10 03:05:37;;;;;;;8.15;3.60;;;15.30;99.90;;;;;;4971518;28;20393;-64
2021/08/10 03:08:06;;;;;;;7.68;3.65;;;15.30;99.90;;;;;;4970389;28;20891;-64
2021/08/10 03:10:34;;;;;;;8.90;3.40;;;15.30;99.90;;;;;;4971254;28;20542;-65
2021/08/10 03:13:04;;;;;;;7.65;3.72;;;15.30;99.90;;;;;;4970685;28;20435;-60
2021/08/10 03:15:33;;;;;;;8.77;4.10;;;15.20;99.90;;;;;;4971049;28;20420;-63
2021/08/10 03:18:03;;;;;;;6.65;3.30;;;15.20;99.90;;;;;;4970866;28;20416;-59
2021/08/10 03:20:32;;;;;;;6.60;3.45;;;15.10;99.90;;;;;;4971323;28;20384;-66
2021/08/10 03:22:59;;;;;;;7.28;3.40;;;15.10;99.90;;;;;;4971107;28;20453;-65
2021/08/10 03:25:27;;;;;;;9.10;3.78;;;15.10;99.90;;;;;;4970952;28;20398;-65
2021/08/10 03:27:54;;;;;;;8.65;3.70;;;15.10;99.90;;;;;;4971168;28;20494;-65
2021/08/10 03:30:20;;;;;;;8.73;4.05;;;15.10;99.90;;;;;;4970099;28;20460;-66
2021/08/10 03:32:48;;;;;;;7.15;3.40;;;15.10;99.90;;;;;;4990117;28;20475;-61
2021/08/10 03:35:13;;;;;;;7.93;3.58;;;15.10;99.90;;;;;;4989632;28;20496;-61
2021/08/10 03:37:40;;;;;;;8.30;3.58;;;15.10;99.90;;;;;;4990414;28;20422;-67
2021/08/10 03:40:07;;;;;;;7.68;3.75;;;15.00;99.90;;;;;;4982538;28;20989;-61
2021/08/10 03:42:34;;;;;;;7.00;3.45;;;14.90;99.90;;;;;;4975538;28;20389;-65
2021/08/10 03:45:00;;;;;;;7.68;3.30;;;14.90;99.90;;;;;;4990126;28;20414;-62
2021/08/10 03:47:26;;;;;;;10.10;4.00;;;14.90;99.90;;;;;;4964553;28;20834;-66
2021/08/10 03:49:54;;;;;;;7.80;4.10;;;15.00;99.90;;;;;;4977511;28;20386;-61
2021/08/10 03:52:20;;;;;;;7.43;4.03;;;15.00;99.90;;;;;;4978926;28;20425;-60
2021/08/10 03:54:46;;;;;;;10.23;4.28;;;14.80;99.90;;;;;;4978881;28;20416;-61
2021/08/10 03:57:17;;;;;;;10.88;4.65;;;14.80;99.90;;;;;;4979762;28;20425;-61
2021/08/10 03:59:45;;;;;;;10.80;4.55;;;14.80;99.90;;;;;;4978068;28;20430;-64
2021/08/10 04:02:14;;;;;;;8.43;4.28;;;14.80;99.90;;;;;;4976006;28;20409;-61
2021/08/10 04:04:41;;;;;;;9.15;4.30;;;14.90;99.90;;;;;;4989825;28;20379;-61
2021/08/10 04:07:08;;;;;;;9.40;4.93;;;14.90;99.90;;;;;;4975335;28;20503;-60
2021/08/10 04:09:36;;;;;;;8.85;4.40;;;15.00;99.90;;;;;;4970522;28;20420;-60
2021/08/10 04:12:05;;;;;;;8.50;4.03;;;15.10;99.90;;;;;;4970320;28;20395;-59
2021/08/10 04:14:31;;;;;;;10.68;4.30;;;15.10;99.90;;;;;;4970352;28;20487;-60
2021/08/10 04:17:04;;;;;;;7.50;4.20;;;15.20;99.90;;;;;;4970440;28;20864;-60
2021/08/10 04:19:33;;;;;;;8.98;4.32;;;15.20;99.90;;;;;;4970488;28;20466;-60
2021/08/10 04:22:00;;;;;;;9.63;4.10;;;15.30;99.90;;;;;;4970308;28;20451;-60
2021/08/10 04:24:25;;;;;;;7.57;4.30;;;15.50;99.90;;;;;;4969914;28;20488;-60
2021/08/10 04:26:52;;;;;;;11.05;4.10;;;15.60;99.90;;;;;;4970401;28;20384;-60
2021/08/10 04:29:17;;;;;;;9.32;3.88;;;15.60;99.90;;;;;;4970695;28;20394;-60
2021/08/10 04:31:43;;;;;;;10.77;4.80;;;15.70;99.90;;;;;;4974857;28;20403;-59
2021/08/10 04:34:09;;;;;;;7.90;4.10;;;15.80;99.90;;;;;;4972855;28;20394;-60
2021/08/10 04:36:35;;;;;;;7.75;4.15;;;16.00;99.90;;;;;;4979518;28;20412;-60
2021/08/10 04:39:01;;;;;;;10.30;4.40;;;16.00;99.90;;;;;;4979145;28;20853;-59
2021/08/10 04:41:27;;;;;;;10.70;4.20;;;16.00;99.90;;;;;;4977544;28;21215;-60
2021/08/10 04:43:53;;;;;;;9.77;4.63;;;16.10;99.90;;;;;;4967544;28;20411;-60
2021/08/10 04:46:21;;;;;;;10.50;4.40;;;16.20;99.90;;;;;;4960587;28;20422;-60
2021/08/10 04:48:46;;;;;;;8.80;4.10;;;16.30;99.90;;;;;;4983950;28;20414;-60
2021/08/10 04:51:13;;;;;;;8.60;4.53;;;16.30;99.90;;;;;;4987268;28;20850;-60
2021/08/10 04:53:39;;;;;;;10.43;4.20;;;16.30;99.90;;;;;;4972505;28;20430;-60
2021/08/10 04:56:05;;;;;;;9.38;4.90;;;16.30;99.90;;;;;;4983947;28;20416;-59
2021/08/10 04:58:31;;;;;;;9.52;5.20;;;16.20;99.90;;;;;;4979647;28;20398;-61
2021/08/10 05:00:57;;;;;;;14.10;4.60;;;16.30;99.90;;;;;;4987763;28;20399;-61
2021/08/10 05:03:22;;;;;;;8.30;4.20;;;16.40;99.90;;;;;;4972571;28;21174;-61
2021/08/10 05:05:51;;;;;;;8.03;4.10;;;16.40;99.90;;;;;;4983036;28;20932;-61
2021/08/10 05:08:17;;;;;;;10.83;4.90;;;16.40;99.90;;;;;;4979254;28;20466;-61
2021/08/10 05:10:43;;;;;;;10.73;4.90;;;16.50;99.90;;;;;;4977255;28;20480;-61
2021/08/10 05:13:09;;;;;;;9.25;4.18;;;16.50;99.90;;;;;;4973119;28;20969;-61
2021/08/10 05:15:36;;;;;;;8.68;4.35;;;16.50;99.90;;;;;;4977952;28;20420;-61
2021/08/10 05:18:02;;;;;;;9.20;4.53;;;16.60;99.90;;;;;;4978938;28;20917;-61
2021/08/10 05:20:28;;;;;;;12.52;5.38;;;16.50;99.90;;;;;;4982702;28;20445;-61
2021/08/10 05:22:53;;;;;;;9.50;4.93;;;16.50;99.90;;;;;;4973252;28;20745;-61
2021/08/10 05:25:20;;;;;;;10.45;4.80;;;16.50;99.90;;;;;;4981965;28;20406;-61
2021/08/10 05:27:46;;;;;;;9.05;4.32;;;16.50;99.90;;;;;;4982027;28;20398;-61
2021/08/10 05:30:12;;;;;;;9.60;5.17;;;16.50;99.90;;;;;;4990551;28;20382;-61
2021/08/10 05:32:37;;;;;;;9.13;4.40;;;16.60;99.90;;;;;;4986874;28;20396;-60
2021/08/10 05:35:04;;;;;;;8.40;4.47;;;16.70;99.90;;;;;;4979260;28;20820;-60
2021/08/10 05:37:30;;;;;;;7.77;4.20;;;16.80;99.90;;;;;;4954944;28;20412;-60
2021/08/10 05:39:55;;;;;;;11.10;5.18;;;16.90;99.90;;;;;;4972848;28;20431;-60
2021/08/10 05:42:21;;;;;;;8.85;4.80;;;17.00;99.90;;;;;;4972256;28;20431;-60
2021/08/10 05:44:46;;;;;;;9.60;5.00;;;17.00;99.90;;;;;;4973159;28;20463;-61
2021/08/10 05:47:12;;;;;;;10.40;4.80;;;17.00;99.90;;;;;;4972181;28;20888;-60
2021/08/10 05:49:40;;;;;;;10.27;4.95;;;17.10;99.90;;;;;;4970245;28;20551;-60
2021/08/10 05:52:08;;;;;;;7.53;4.35;;;17.10;99.90;;;;;;4976903;28;20431;-57
2021/08/10 05:54:34;;;;;;;7.70;4.72;;;17.30;99.90;;;;;;4988168;28;20459;-60
2021/08/10 05:57:00;;;;;;;11.13;4.93;;;17.70;99.90;;;;;;4972386;28;20397;-60
2021/08/10 05:59:25;;;;;;;10.43;4.68;;;17.90;99.90;;;;;;4962452;28;20453;-60
2021/08/10 06:01:51;;;;;;;9.83;5.00;;;18.00;99.90;;;;;;4991891;28;20394;-60
2021/08/10 06:04:16;;;;;;;9.00;4.60;;;18.10;99.90;;;;;;4990586;28;20393;-60
2021/08/10 06:06:42;;;;;;;9.03;4.07;;;18.20;99.90;;;;;;4991459;28;20398;-60
2021/08/10 06:09:08;;;;;;;11.88;4.90;;;18.40;99.90;;;;;;4973826;28;20396;-58
2021/08/10 06:11:34;;;;;;;9.77;4.25;;;18.70;99.90;;;;;;4972503;28;20396;-60
2021/08/10 06:14:00;;;;;;;8.80;4.30;;;19.10;99.90;;;;;;4971910;28;20437;-60
2021/08/10 06:16:25;;;;;;;11.32;4.70;;;19.50;99.90;;;;;;4971195;28;20451;-61
2021/08/10 06:18:52;;;;;;;9.53;4.03;;;19.70;99.90;;;;;;4972289;28;20459;-61
2021/08/10 06:21:17;;;;;;;12.70;4.30;;;20.10;99.90;;;;;;4970953;28;20403;-61
2021/08/10 06:23:43;;;;;;;6.83;3.73;;;21.20;99.90;;;;;;4972011;28;20384;-61
2021/08/10 06:26:09;;;;;;;8.93;3.50;;;22.10;99.90;;;;;;4988444;28;20387;-58
2021/08/10 06:28:35;;;;;;;7.63;3.22;;;22.90;99.90;;;;;;4991370;28;20723;-62
2021/08/10 06:31:03;;;;;;;8.40;3.07;;;24.00;99.90;;;;;;4991344;28;20390;-62
2021/08/10 06:33:29;;;;;;;6.50;2.90;;;24.90;99.90;;;;;;4990913;28;20383;-62
2021/08/10 06:35:54;;;;;;;6.97;2.78;;;26.10;99.90;;;;;;4990578;28;20494;-62
2021/08/10 06:38:20;;;;;;;8.83;6.07;;;27.20;99.90;;;;;;4989969;28;20399;-62
2021/08/10 06:40:46;;;;;;;7.90;2.80;;;26.80;99.90;;;;;;4991040;28;20862;-61
2021/08/10 06:43:11;;;;;;;7.93;2.97;;;25.90;99.90;;;;;;4990597;28;20379;-59
2021/08/10 06:45:37;;;;;;;6.20;2.10;;;25.10;99.90;;;;;;4990906;28;20425;-61
2021/08/10 06:48:04;;;;;;;7.30;2.88;;;24.20;99.90;;;;;;4990851;28;20492;-61
2021/08/10 06:50:30;;;;;;;7.18;2.33;;;23.30;99.90;;;;;;4990598;28;20440;-61
2021/08/10 06:52:55;;;;;;;6.63;2.63;;;23.00;99.90;;;;;;4990640;28;20987;-61
2021/08/10 06:55:21;;;;;;;6.70;2.70;;;23.00;99.90;;;;;;4990237;28;20410;-61
2021/08/10 06:57:47;;;;;;;7.07;2.70;;;23.00;99.90;;;;;;4990603;28;20386;-61
2021/08/10 07:00:13;;;;;;;8.35;2.88;;;22.80;99.90;;;;;;4973616;28;20775;-58
2021/08/10 07:02:38;;;;;;;7.28;2.40;;;22.70;99.90;;;;;;4971476;28;20392;-61
2021/08/10 07:05:04;;;;;;;6.67;2.50;;;22.70;99.90;;;;;;4971250;28;20752;-61
2021/08/10 07:07:30;;;;;;;7.07;2.70;;;22.70;99.90;;;;;;4970431;28;20403;-60
2021/08/10 07:09:55;;;;;;;6.60;2.47;;;22.50;99.90;;;;;;4971106;28;20395;-61
2021/08/10 07:12:21;;;;;;;7.43;2.80;;;22.90;99.90;;;;;;4970372;28;20381;-61
2021/08/10 07:14:47;;;;;;;6.43;2.50;;;22.90;99.90;;;;;;4971362;28;20736;-61
2021/08/10 07:17:12;;;;;;;8.75;2.85;;;22.90;99.90;;;;;;4970767;28;20470;-58
2021/08/10 07:19:38;;;;;;;7.40;2.80;;;22.70;99.90;;;;;;4970748;28;20484;-61
2021/08/10 07:22:04;;;;;;;5.90;2.50;;;22.40;99.90;;;;;;4971154;28;20737;-62
2021/08/10 07:24:30;;;;;;;8.03;3.20;;;22.40;99.90;;;;;;4970646;28;20415;-61
2021/08/10 07:26:55;;;;;;;8.38;3.10;;;22.70;99.90;;;;;;4971170;28;20392;-61
2021/08/10 07:29:21;;;;;;;6.00;2.40;;;23.20;99.90;;;;;;4970047;28;20392;-61
2021/08/10 07:31:47;;;;;;;6.70;2.60;;;24.30;99.90;;;;;;4970817;28;20396;-61
2021/08/10 07:34:12;;;;;;;7.90;3.40;;;25.40;99.90;;;;;;4970839;28;20414;-59
2021/08/10 07:36:38;;;;;;;8.80;3.60;;;25.00;99.90;;;;;;4970451;28;20419;-62
2021/08/10 07:39:05;;;;;;;6.80;2.67;;;26.90;99.90;;;;;;4970149;28;20396;-62
2021/08/10 07:41:31;;;;;;;9.40;3.80;;;26.70;99.90;;;;;;4970053;28;20503;-62
2021/08/10 07:43:57;;;;;;;8.73;3.80;;;27.20;99.90;;;;;;4970799;28;20399;-62
2021/08/10 07:46:23;;;;;;;8.32;3.45;;;26.90;99.90;;;;;;4969910;28;20393;-62
2021/08/10 07:48:50;;;;;;;8.18;3.85;;;27.20;99.90;;;;;;4970826;28;20515;-62
2021/08/10 07:51:16;;;;;;;8.40;3.70;;;27.10;99.90;;;;;;4970236;28;20386;-59
2021/08/10 07:53:42;;;;;;;9.25;3.42;;;26.70;99.90;;;;;;4970487;28;20396;-62
2021/08/10 07:56:08;;;;;;;8.95;3.90;;;26.40;99.90;;;;;;4970608;28;20404;-62
2021/08/10 07:58:33;;;;;;;8.90;4.10;;;25.60;99.90;;;;;;4973296;28;21030;-62
2021/08/10 08:00:59;;;;;;;9.93;3.90;;;25.20;99.90;;;;;;4990195;28;20379;-62
2021/08/10 08:03:25;;;;;;;12.88;4.25;;;24.50;99.90;;;;;;4971932;28;20783;-62
2021/08/10 08:05:50;;;;;;;8.35;3.70;;;24.50;99.90;;;;;;4990096;28;20484;-61
2021/08/10 08:08:16;;;;;;;10.00;4.10;;;24.70;99.90;;;;;;4989560;28;20487;-59
2021/08/10 08:10:42;;;;;;;8.65;3.50;;;25.10;99.90;;;;;;4990174;28;20478;-62
2021/08/10 08:13:07;;;;;;;10.23;3.60;;;25.30;99.90;;;;;;4989824;28;20758;-62
2021/08/10 08:15:34;;;;;;;8.57;3.87;;;25.70;99.90;;;;;;4989203;28;21172;-62
2021/08/10 08:18:02;;;;;;;8.60;3.90;;;25.60;99.90;;;;;;4990101;28;20402;-62
2021/08/10 08:20:28;;;;;;;7.65;3.60;;;25.50;99.90;;;;;;4989246;28;20390;-63
2021/08/10 08:22:53;;;;;;;9.60;3.70;;;25.30;99.90;;;;;;4989721;28;20387;-63
2021/08/10 08:25:19;;;;;;;9.80;3.35;;;25.10;99.90;;;;;;4989182;28;20474;-62
2021/08/10 08:27:45;;;;;;;9.20;3.70;;;25.00;99.90;;;;;;4990208;28;20738;-63
2021/08/10 08:30:11;;;;;;;7.57;3.20;;;25.50;99.90;;;;;;4990035;28;20862;-63
2021/08/10 08:32:37;;;;;;;8.40;3.25;;;26.10;99.90;;;;;;4989153;28;20543;-62
2021/08/10 08:35:03;;;;;;;8.70;3.37;;;26.60;99.90;;;;;;4989140;28;20886;-62
2021/08/10 08:37:29;;;;;;;7.10;3.15;;;27.20;98.60;;;;;;4988764;28;20398;-62
2021/08/10 08:39:54;;;;;;;8.70;2.80;;;27.60;96.70;;;;;;4989288;28;20378;-62
2021/08/10 08:42:22;;;;;;;9.38;2.72;;;27.90;95.90;;;;;;4988496;28;20386;-62
2021/08/10 08:44:48;;;;;;;9.15;5.78;;;28.10;94.00;;;;;;4989443;28;20870;-62
2021/08/10 08:47:21;;;;;;;7.47;5.00;;;29.30;93.80;;;;;;4989201;28;20421;-62
2021/08/10 08:49:48;;;;;;;10.20;8.27;;;30.90;89.40;;;;;;4990798;28;20481;-62
2021/08/10 08:52:17;;;;;;;10.43;9.43;;;31.50;80.80;;;;;;4993165;28;20382;-62
2021/08/10 08:54:43;;;;;;;11.35;10.27;;;31.10;80.20;;;;;;4992641;28;20371;-62
2021/08/10 08:57:10;;;;;;;7.85;7.05;;;30.90;82.60;;;;;;4993146;28;20433;-62
2021/08/10 08:59:40;;;;;;;9.52;6.75;;;31.30;79.50;;;;;;4980466;28;20487;-62
2021/08/10 09:02:14;;;;;;;9.45;5.25;;;32.50;74.10;;;;;;4973786;28;20475;-62
2021/08/10 09:04:40;;;;;;;7.22;3.78;;;32.30;73.40;;;;;;4972739;28;21019;-62
2021/08/10 09:07:06;;;;;;;7.83;4.30;;;31.20;73.70;;;;;;4973967;28;20485;-62
2021/08/10 09:09:32;;;;;;;9.93;7.80;;;30.20;75.40;;;;;;4972772;28;20400;-62
2021/08/10 09:12:00;;;;;;;9.70;5.75;;;29.40;78.50;;;;;;4973375;28;20396;-62
2021/08/10 09:14:51;;;;;;;7.60;2.70;;;29.20;81.20;;;;;;4972701;28;20400;-62
2021/08/10 09:17:18;;;;;;;6.10;2.38;;;29.90;80.70;;;;;;4973372;28;20416;-59
2021/08/10 09:19:48;;;;;;;7.97;2.70;;;30.80;78.80;;;;;;4955645;28;20893;-63
2021/08/10 09:22:22;;;;;;;6.35;2.65;;;30.90;76.80;;;;;;4973338;28;20829;-63
2021/08/10 09:25:16;;;;;;;6.57;2.30;;;31.40;74.60;;;;;;4973443;28;20515;-63
2021/08/10 09:27:42;;;;;;;6.80;2.50;;;31.60;75.10;;;;;;4962952;28;20491;-63
2021/08/10 09:30:10;;;;;;;6.88;2.60;;;31.50;73.50;;;;;;4973409;28;20471;-63
2021/08/10 09:32:51;;;;;;;7.90;2.67;;;31.30;71.90;;;;;;4972805;28;20413;-63
2021/08/10 09:35:18;;;;;;;7.47;2.80;;;31.50;71.80;;;;;;4973233;28;20420;-63
2021/08/10 09:38:17;;;;;;;7.22;2.50;;;31.40;72.30;;;;;;4973123;28;20392;-63
2021/08/10 09:40:47;;;;;;;8.13;2.50;;;30.40;74.40;;;;;;4972578;28;20979;-63
2021/08/10 09:43:24;;;;;;;7.50;3.07;;;29.70;75.50;;;;;;4973332;28;20400;-63
2021/08/10 09:46:08;;;;;;;8.50;3.10;;;29.00;78.30;;;;;;4973004;28;20400;-63
2021/08/10 09:48:35;;;;;;;8.02;2.80;;;29.00;79.20;;;;;;4972303;28;20926;-63
2021/08/10 09:51:11;;;;;;;6.03;2.20;;;29.20;79.10;;;;;;4972967;28;20373;-62
2021/08/10 09:53:37;;;;;;;5.93;2.10;;;28.50;76.00;;;;;;4971872;28;20888;-63
2021/08/10 09:56:04;;;;;;;7.00;2.30;;;28.00;77.40;;;;;;4972752;28;20772;-63
2021/08/10 09:58:30;;;;;;;6.70;1.80;;;27.90;78.60;;;;;;4974638;28;20386;-62
2021/08/10 10:01:01;;;;;;;7.37;2.27;;;27.90;76.40;;;;;;4991053;28;20397;-62
2021/08/10 10:03:31;;;;;;;5.28;1.90;;;28.30;76.40;;;;;;4991305;28;20441;-64
2021/08/10 10:05:56;;;;;;;7.72;2.13;;;28.00;75.70;;;;;;4992294;28;20383;-62
2021/08/10 10:08:24;;;;;;;8.00;2.10;;;28.00;75.60;;;;;;4992115;28;20413;-59
2021/08/10 10:10:54;;;;;;;6.73;2.40;;;28.00;76.80;;;;;;4991493;28;20893;-63
2021/08/10 10:13:22;;;;;;;5.93;2.20;;;28.90;78.40;;;;;;4991860;28;20386;-63
2021/08/10 10:15:48;;;;;;;6.35;2.17;;;29.20;78.00;;;;;;4991814;28;20901;-63
2021/08/10 10:18:14;;;;;;;5.75;2.00;;;29.70;76.40;;;;;;4974047;28;20414;-63
2021/08/10 10:20:46;;;;;;;9.10;2.80;;;30.10;76.60;;;;;;4991114;28;20716;-63
2021/08/10 10:23:23;;;;;;;7.20;2.20;;;30.40;76.00;;;;;;4991543;28;20394;-63
2021/08/10 10:25:51;;;;;;;7.38;2.50;;;29.60;76.20;;;;;;4987122;28;20410;-63
2021/08/10 10:28:18;;;;;;;6.47;2.28;;;29.10;79.20;;;;;;4978667;28;20404;-62
2021/08/10 10:30:46;;;;;;;12.90;2.90;;;28.90;80.40;;;;;;4988199;28;20383;-63
2021/08/10 10:33:13;;;;;;;9.40;2.70;;;28.40;83.20;;;;;;4971706;28;20423;-63
2021/08/10 10:35:40;;;;;;;7.60;2.50;;;28.20;82.20;;;;;;4976544;28;20410;-63
2021/08/10 10:38:07;;;;;;;6.10;2.40;;;28.20;82.10;;;;;;4973957;28;20757;-63
2021/08/10 10:40:34;;;;;;;5.90;2.40;;;28.40;81.70;;;;;;4990506;28;20390;-63
2021/08/10 10:43:00;;;;;;;8.40;2.50;;;28.40;82.20;;;;;;4991020;28;20418;-63
2021/08/10 10:45:40;;;;;;;8.13;2.65;;;28.40;83.40;;;;;;4973027;28;20902;-59
2021/08/10 10:48:26;;;;;;;8.25;2.70;;;28.50;82.50;;;;;;4990708;28;20459;-63
2021/08/10 10:51:02;;;;;;;6.50;2.50;;;28.60;82.30;;;;;;4991550;28;20459;-63
2021/08/10 10:53:28;;;;;;;6.00;2.20;;;28.50;83.70;;;;;;4972008;28;20756;-63
2021/08/10 10:55:54;;;;;;;7.57;2.60;;;28.40;82.20;;;;;;4975800;28;20414;-63
2021/08/10 10:58:28;;;;;;;7.70;2.60;;;27.70;85.10;;;;;;4982684;28;20897;-59
2021/08/10 11:01:21;;;;;;;7.53;3.08;;;27.60;86.10;;;;;;4978229;28;20408;-63
2021/08/10 11:04:07;;;;;;;10.18;2.83;;;27.60;87.30;;;;;;4949987;28;20413;-63
2021/08/10 11:06:42;;;;;;;8.67;2.73;;;28.20;85.10;;;;;;4974555;28;20436;-63
2021/08/10 11:09:08;;;;;;;8.70;2.53;;;28.10;85.90;;;;;;4971065;28;20434;-62
2021/08/10 11:11:44;;;;;;;6.47;2.20;;;28.00;86.30;;;;;;4971667;28;20407;-63
2021/08/10 11:14:35;;;;;;;6.95;2.50;;;27.80;87.70;;;;;;4980294;28;20411;-61
2021/08/10 11:17:13;;;;;;;7.60;2.40;;;27.80;88.50;;;;;;4980252;28;20438;-62
2021/08/10 11:19:41;;;;;;;8.55;2.58;;;28.00;85.70;;;;;;4978912;28;20464;-63
2021/08/10 11:22:16;;;;;;;6.75;2.38;;;27.90;87.40;;;;;;4978398;28;20928;-63
2021/08/10 11:24:47;;;;;;;6.53;2.50;;;28.30;85.60;;;;;;4987132;28;20394;-63
2021/08/10 11:27:38;;;;;;;6.50;2.30;;;28.50;83.10;;;;;;4971496;28;20894;-63
2021/08/10 11:30:08;;;;;;;5.93;2.33;;;28.40;83.80;;;;;;4979647;28;20413;-63
2021/08/10 11:32:46;;;;;;;7.77;2.60;;;27.90;83.20;;;;;;4990045;28;20877;-63
2021/08/10 11:35:33;;;;;;;6.90;2.37;;;27.20;86.60;;;;;;4990579;28;20461;-63
2021/08/10 11:38:20;;;;;;;8.60;2.60;;;27.50;87.20;;;;;;4987699;28;20490;-63
2021/08/10 11:40:56;;;;;;;6.72;2.22;;;28.20;83.30;;;;;;4970708;28;20404;-63
2021/08/10 11:43:35;;;;;;;11.40;2.70;;;28.10;84.90;;;;;;4971326;28;20412;-63
2021/08/10 11:46:03;;;;;;;8.55;2.90;;;28.20;85.40;;;;;;4971359;28;20523;-63
2021/08/10 11:48:41;;;;;;;7.25;2.83;;;28.50;83.90;;;;;;4970969;28;20443;-59
2021/08/10 11:51:23;;;;;;;6.65;2.83;;;28.30;84.00;;;;;;4971084;28;20879;-61
2021/08/10 11:53:51;;;;;;;7.13;2.30;;;28.10;85.60;;;;;;4970506;28;20531;-62
2021/08/10 11:56:36;;;;;;;6.97;2.33;;;28.10;85.50;;;;;;4984096;28;20406;-61
2021/08/10 11:59:05;;;;;;;8.52;2.58;;;28.00;84.80;;;;;;4990519;28;20478;-63
2021/08/10 12:01:34;;;;;;;6.50;2.30;;;28.30;84.40;;;;;;4989687;28;20394;-60
2021/08/10 12:04:11;;;;;;;6.10;2.10;;;28.10;81.70;;;;;;4990647;28;20394;-63
2021/08/10 12:06:38;;;;;;;6.57;2.50;;;28.20;84.30;;;;;;4989421;28;20474;-63
2021/08/10 12:09:08;;;;;;;7.70;2.55;;;28.30;82.50;;;;;;4990352;28;20391;-62
2021/08/10 12:11:34;;;;;;;8.23;2.80;;;28.00;85.50;;;;;;4972048;28;20387;-62
2021/08/10 12:14:17;;;;;;;6.10;2.30;;;27.80;84.40;;;;;;4990460;28;20417;-62
2021/08/10 12:17:06;;;;;;;6.35;2.35;;;28.20;81.40;;;;;;4989277;28;20601;-63
2021/08/10 12:19:35;;;;;;;7.82;3.00;;;28.20;81.50;;;;;;4989807;28;20449;-59
2021/08/10 12:22:03;;;;;;;6.70;2.75;;;28.10;82.10;;;;;;4989818;28;20391;-63
2021/08/10 12:24:32;;;;;;;8.90;2.70;;;28.10;81.30;;;;;;4992392;28;20872;-60
2021/08/10 12:26:58;;;;;;;6.72;2.25;;;28.30;81.00;;;;;;4994280;28;20494;-63
2021/08/10 12:29:40;;;;;;;5.90;2.20;;;28.40;79.70;;;;;;4989121;28;20495;-63
2021/08/10 12:32:08;;;;;;;7.77;2.30;;;28.50;81.00;;;;;;4974446;28;20399;-63
2021/08/10 12:34:37;;;;;;;6.10;2.40;;;28.20;82.70;;;;;;4974271;28;20483;-60
2021/08/10 12:37:07;;;;;;;7.80;2.50;;;28.40;83.00;;;;;;4974374;28;20408;-62
2021/08/10 12:39:40;;;;;;;5.32;2.00;;;28.40;82.80;;;;;;4956897;28;20470;-60
2021/08/10 12:42:07;;;;;;;6.30;2.20;;;28.80;83.50;;;;;;4974838;28;20454;-63
2021/08/10 12:44:33;;;;;;;6.47;2.38;;;28.80;82.00;;;;;;4974157;28;20433;-60
2021/08/10 12:47:01;;;;;;;6.87;2.20;;;28.70;82.00;;;;;;4973930;28;20837;-62
2021/08/10 12:49:33;;;;;;;5.30;1.90;;;28.50;79.80;;;;;;4974093;28;20404;-62
2021/08/10 12:52:00;;;;;;;6.47;2.60;;;28.20;82.30;;;;;;4974208;28;20487;-63
2021/08/10 12:54:37;;;;;;;7.68;2.33;;;27.90;81.20;;;;;;4974171;28;20523;-61